Coronel Pringles, Argentina
Current Conditions -  °F | °C
As of 10:00 AM on Thursday 23 Oct 2014 (Local Time) from SAZM Reporting Station
Clear Clear  
Wind Chill: 63°   Ceiling: Unl
Heat Index: 63°   Visibility: 6mi
Dew Point: 43°   Wind: 10mph
Humidity: 48%   Direction: 110°ESE
Pressure: 30.12"   Gusts: NA
Location:  37.97°S, 61.37°W
Report Text: SAZM 231300Z 11009KT CAVOK 17/06 Q1020
Loading
Personal Weather Stations






























Interactive Weather Map New forecast layout! Learn more

10-Day Weather Forecast

Advertisements
Track Severe Weather on mobile